Time;durP1;ratioP1;P1;durP2;ratioP2;P2;SDS_P1;SDS_P2;PMS_P1;PMS_P2;Temp;Humidity;BMP_temperature;BMP_pressure;BME280_temperature;BME280_humidity;BME280_pressure;Samples;Min_cycle;Max_cycle;Signal;HPM_P1;HPM_P2
2022/12/16 00:01:57;;;;;;;122.50;51.40;;;-4.50;99.90;;;;;;4963878;28;20200;-57
2022/12/16 00:04:26;;;;;;;120.43;50.10;;;-4.40;99.90;;;;;;4968031;28;20188;-58
2022/12/16 00:06:54;;;;;;;125.00;51.07;;;-4.50;99.90;;;;;;4966720;28;20196;-57
2022/12/16 00:09:22;;;;;;;119.70;49.77;;;-4.50;99.90;;;;;;4969590;28;20207;-57
2022/12/16 00:11:51;;;;;;;119.90;49.60;;;-4.50;99.90;;;;;;4966453;28;20192;-57
2022/12/16 00:14:21;;;;;;;119.73;50.10;;;-4.60;99.90;;;;;;4959656;28;20207;-57
2022/12/16 00:16:50;;;;;;;117.37;49.23;;;-4.60;99.90;;;;;;4969014;28;20248;-57
2022/12/16 00:19:20;;;;;;;117.17;48.97;;;-4.70;99.90;;;;;;4967946;28;20237;-57
2022/12/16 00:21:48;;;;;;;113.73;48.23;;;-4.70;99.90;;;;;;4968061;28;20204;-57
2022/12/16 00:24:18;;;;;;;102.57;45.63;;;-4.70;99.90;;;;;;4966878;28;20692;-57
2022/12/16 00:26:47;;;;;;;114.67;46.50;;;-4.70;99.90;;;;;;4966879;28;20200;-57
2022/12/16 00:29:16;;;;;;;105.60;45.57;;;-4.70;99.90;;;;;;4966601;28;20704;-57
2022/12/16 00:31:46;;;;;;;106.83;45.53;;;-4.70;99.90;;;;;;4971149;28;20203;-57
2022/12/16 00:34:15;;;;;;;120.43;53.30;;;-4.80;99.90;;;;;;4970897;28;20436;-57
2022/12/16 00:36:45;;;;;;;108.97;47.20;;;-4.80;99.90;;;;;;4975447;28;20209;-57
2022/12/16 00:39:13;;;;;;;107.50;46.13;;;-4.80;99.90;;;;;;4996447;28;20211;-57
2022/12/16 00:41:41;;;;;;;105.37;45.43;;;-4.80;99.90;;;;;;4970226;28;20196;-57
2022/12/16 00:44:10;;;;;;;110.90;46.97;;;-4.90;99.90;;;;;;4967897;28;20192;-56
2022/12/16 00:46:38;;;;;;;108.33;45.83;;;-4.90;99.90;;;;;;4965581;28;20196;-56
2022/12/16 00:49:07;;;;;;;106.00;46.10;;;-4.90;99.90;;;;;;5030876;28;20666;-57
2022/12/16 00:51:35;;;;;;;108.30;46.07;;;-4.80;99.90;;;;;;4967677;28;20196;-58
2022/12/16 00:54:05;;;;;;;108.57;46.27;;;-4.90;99.90;;;;;;4965182;28;20224;-57
2022/12/16 00:56:34;;;;;;;107.50;44.97;;;-4.90;99.90;;;;;;4991661;28;20188;-57
2022/12/16 00:59:02;;;;;;;104.17;44.20;;;-4.90;99.90;;;;;;4968517;28;20203;-57
2022/12/16 01:01:30;;;;;;;114.30;47.63;;;-4.90;99.90;;;;;;4969313;28;20222;-57
2022/12/16 01:03:59;;;;;;;114.30;47.50;;;-4.90;99.90;;;;;;4969260;28;20265;-57
2022/12/16 01:06:27;;;;;;;111.07;46.23;;;-4.90;99.90;;;;;;5053112;28;20231;-57
2022/12/16 01:08:56;;;;;;;106.43;45.53;;;-4.90;99.90;;;;;;4967900;28;20192;-57
2022/12/16 01:11:25;;;;;;;113.90;48.10;;;-4.90;99.90;;;;;;4966658;28;20219;-57
2022/12/16 01:13:53;;;;;;;108.93;44.63;;;-4.90;99.90;;;;;;4966581;28;20203;-57
2022/12/16 01:16:22;;;;;;;115.57;47.17;;;-4.90;99.90;;;;;;4970300;28;20235;-57
2022/12/16 01:18:52;;;;;;;112.00;46.30;;;-4.90;99.90;;;;;;4964553;28;20235;-57
2022/12/16 01:21:22;;;;;;;107.33;45.30;;;-5.00;99.90;;;;;;4971110;28;20249;-57
2022/12/16 01:23:52;;;;;;;109.80;45.47;;;-5.10;99.90;;;;;;4968928;28;20302;-57
2022/12/16 01:26:23;;;;;;;114.70;46.87;;;-5.20;99.90;;;;;;4966621;28;20911;-57
2022/12/16 01:28:53;;;;;;;114.23;46.73;;;-5.20;99.90;;;;;;4966556;28;20195;-57
2022/12/16 01:31:23;;;;;;;111.87;47.13;;;-5.30;99.90;;;;;;5001129;28;20590;-58
2022/12/16 01:33:51;;;;;;;107.50;44.50;;;-5.30;99.90;;;;;;4968628;28;20199;-58
2022/12/16 01:36:20;;;;;;;106.40;45.10;;;-5.40;99.90;;;;;;4959951;28;20199;-60
2022/12/16 01:38:48;;;;;;;102.07;42.97;;;-5.40;99.90;;;;;;4963093;28;20227;-59
2022/12/16 01:41:18;;;;;;;111.13;43.93;;;-5.40;99.90;;;;;;4964729;28;20208;-57
2022/12/16 01:43:46;;;;;;;109.27;44.87;;;-5.30;99.90;;;;;;4968531;28;20187;-57
2022/12/16 01:46:23;;;;;;;104.57;43.80;;;-5.30;99.90;;;;;;4990873;28;20195;-57
2022/12/16 01:48:57;;;;;;;98.17;42.57;;;-5.20;99.90;;;;;;4963477;28;20196;-58
2022/12/16 01:51:30;;;;;;;102.00;43.27;;;-5.20;99.90;;;;;;4964677;28;20202;-57
2022/12/16 01:54:05;;;;;;;105.70;45.27;;;-5.20;99.90;;;;;;4968339;28;20203;-57
2022/12/16 01:56:39;;;;;;;103.23;43.17;;;-5.20;99.90;;;;;;4993052;28;20206;-57
2022/12/16 01:59:08;;;;;;;104.70;44.53;;;-5.20;99.90;;;;;;4969231;28;20584;-57
2022/12/16 02:01:38;;;;;;;104.27;43.00;;;-5.20;99.90;;;;;;4960327;28;20216;-57
2022/12/16 02:04:06;;;;;;;99.13;44.30;;;-5.20;99.90;;;;;;4959665;28;20283;-57
2022/12/16 02:06:35;;;;;;;108.67;43.97;;;-5.10;99.90;;;;;;4964786;28;20666;-57
2022/12/16 02:09:07;;;;;;;98.37;43.63;;;-5.10;99.90;;;;;;4962178;28;20195;-55
2022/12/16 02:12:00;;;;;;;106.90;44.60;;;-5.10;99.90;;;;;;4958560;28;20523;-56
2022/12/16 02:14:49;;;;;;;98.43;42.00;;;-5.20;99.90;;;;;;4962666;28;20242;-57
2022/12/16 02:17:27;;;;;;;104.70;44.97;;;-5.10;99.90;;;;;;4962129;28;20267;-58
2022/12/16 02:20:36;;;;;;;99.93;42.33;;;-5.10;99.90;;;;;;4989395;28;20216;-57
2022/12/16 02:23:26;;;;;;;104.47;43.77;;;-5.00;99.90;;;;;;4964898;28;20289;-57
2022/12/16 02:26:15;;;;;;;101.30;43.03;;;-5.00;99.90;;;;;;4966055;28;20202;-57
2022/12/16 02:29:06;;;;;;;109.27;44.00;;;-4.90;99.90;;;;;;4964201;28;20230;-57
2022/12/16 02:31:44;;;;;;;97.13;43.03;;;-4.80;99.90;;;;;;4964377;28;20633;-57
2022/12/16 02:34:22;;;;;;;108.73;45.10;;;-4.60;99.90;;;;;;4965464;28;20210;-57
2022/12/16 02:37:02;;;;;;;110.17;45.13;;;-4.50;99.90;;;;;;4964467;28;20188;-57
2022/12/16 02:39:37;;;;;;;106.37;44.97;;;-4.40;99.90;;;;;;4975168;28;20210;-58
2022/12/16 02:42:13;;;;;;;101.03;43.57;;;-4.30;99.90;;;;;;4963333;28;20191;-57
2022/12/16 02:44:47;;;;;;;108.00;45.13;;;-4.30;99.90;;;;;;4997463;28;20657;-57
2022/12/16 02:47:17;;;;;;;104.97;44.60;;;-4.20;99.90;;;;;;4962425;28;20197;-57
2022/12/16 02:49:48;;;;;;;100.43;44.40;;;-4.20;99.90;;;;;;4966636;28;20210;-57
2022/12/16 02:52:20;;;;;;;111.77;44.33;;;-4.30;99.90;;;;;;4963013;28;20199;-57
2022/12/16 02:54:51;;;;;;;95.93;43.83;;;-4.40;99.90;;;;;;4961994;28;20195;-57
2022/12/16 02:57:50;;;;;;;99.17;43.33;;;-4.50;99.90;;;;;;4968136;28;20200;-57
2022/12/16 03:00:20;;;;;;;88.10;41.20;;;-4.50;99.90;;;;;;4966651;28;20223;-57
2022/12/16 03:02:57;;;;;;;95.43;42.17;;;-4.50;99.90;;;;;;4958549;28;20203;-57
2022/12/16 03:05:30;;;;;;;102.27;42.83;;;-4.40;99.90;;;;;;4958529;28;20537;-57
2022/12/16 03:08:03;;;;;;;88.17;41.03;;;-4.40;99.90;;;;;;4966135;28;20203;-57
2022/12/16 03:10:36;;;;;;;92.10;39.80;;;-4.30;99.90;;;;;;4962759;28;20203;-57
2022/12/16 03:13:07;;;;;;;93.03;41.37;;;-4.40;99.90;;;;;;4964502;28;20207;-57
2022/12/16 03:15:36;;;;;;;92.00;40.47;;;-4.40;99.90;;;;;;4965268;28;20555;-58
2022/12/16 03:18:10;;;;;;;92.10;40.40;;;-4.40;99.90;;;;;;4961846;28;20693;-57
2022/12/16 03:20:45;;;;;;;92.23;39.43;;;-4.40;99.90;;;;;;4962421;28;20712;-57
2022/12/16 03:23:18;;;;;;;86.43;38.37;;;-4.30;99.90;;;;;;4963945;28;20200;-59
2022/12/16 03:25:50;;;;;;;93.63;41.07;;;-4.20;99.90;;;;;;4966464;28;20210;-57
2022/12/16 03:28:31;;;;;;;96.13;40.53;;;-4.20;99.90;;;;;;4967314;28;20206;-57
2022/12/16 03:31:04;;;;;;;83.80;39.67;;;-4.10;99.90;;;;;;4968351;28;20200;-57
2022/12/16 03:33:39;;;;;;;87.77;38.97;;;-4.00;99.90;;;;;;4966005;28;20211;-57
2022/12/16 03:36:12;;;;;;;94.03;38.93;;;-3.80;99.90;;;;;;4966254;28;20201;-57
2022/12/16 03:38:43;;;;;;;89.80;40.10;;;-3.70;99.90;;;;;;4968395;28;20211;-58
2022/12/16 03:41:13;;;;;;;79.60;38.30;;;-3.70;99.90;;;;;;4966263;28;20763;-57
2022/12/16 03:43:41;;;;;;;84.47;39.90;;;-3.60;99.90;;;;;;4972192;28;20196;-57
2022/12/16 03:46:11;;;;;;;85.27;39.40;;;-3.50;99.90;;;;;;4970266;28;20191;-57
2022/12/16 03:48:48;;;;;;;85.47;37.37;;;-3.40;99.90;;;;;;4975755;28;20258;-58
2022/12/16 03:51:17;;;;;;;87.57;39.47;;;-3.40;99.90;;;;;;4968733;28;20654;-57
2022/12/16 03:53:45;;;;;;;84.37;38.80;;;-3.30;99.90;;;;;;4968670;28;20213;-58
2022/12/16 03:56:15;;;;;;;82.10;35.87;;;-3.30;99.90;;;;;;4968861;28;20321;-57
2022/12/16 03:58:45;;;;;;;87.63;38.07;;;-3.20;99.90;;;;;;4997779;28;20195;-58
2022/12/16 04:01:14;;;;;;;83.70;37.50;;;-3.20;99.90;;;;;;4970275;28;20247;-57
2022/12/16 04:03:45;;;;;;;82.97;38.10;;;-3.10;99.90;;;;;;4965789;28;20294;-57
2022/12/16 04:06:17;;;;;;;88.57;37.30;;;-3.10;99.90;;;;;;4966574;28;20195;-57
2022/12/16 04:08:46;;;;;;;75.17;35.23;;;-3.10;99.90;;;;;;4981670;28;20269;-57
2022/12/16 04:25:18;;;;;;;62.30;28.80;;;-2.90;99.90;;;;;;4968930;28;20576;-57
2022/12/16 04:27:46;;;;;;;53.03;27.63;;;-2.90;99.90;;;;;;4966417;28;20195;-57
2022/12/16 04:30:21;;;;;;;58.57;28.30;;;-2.90;99.90;;;;;;4965507;28;20693;-57
